createdAt,value
2019-05-17T00:00:17.237Z,99638.42
2019-05-17T00:01:21.460Z,99630.83
2019-05-17T00:02:26.646Z,99627.45
2019-05-17T00:03:30.965Z,99629.17
2019-05-17T00:04:36.407Z,99630.31
2019-05-17T00:05:40.647Z,99630.94
2019-05-17T00:06:47.467Z,99628.97
2019-05-17T00:07:51.356Z,99632.66
2019-05-17T00:08:56.503Z,99630.11
2019-05-17T00:10:00.740Z,99618.37
2019-05-17T00:11:06.666Z,99618.37
2019-05-17T00:12:11.000Z,99622.84
2019-05-17T00:13:17.414Z,99619.20
2019-05-17T00:14:21.796Z,99620.03
2019-05-17T00:15:27.310Z,99614.49
2019-05-17T00:16:31.598Z,99616.45
2019-05-17T00:17:37.817Z,99615.89
2019-05-17T00:18:42.054Z,99608.67
2019-05-17T00:19:46.827Z,99619.02
2019-05-17T00:20:51.147Z,99612.16
2019-05-17T00:21:56.640Z,99614.08
2019-05-17T00:23:01.085Z,99610.96
2019-05-17T00:24:06.677Z,99611.80
2019-05-17T00:25:11.235Z,99609.09
2019-05-17T00:26:16.511Z,99607.77
2019-05-17T00:27:20.733Z,99610.10
2019-05-17T00:28:26.883Z,99607.25
2019-05-17T00:29:32.125Z,99608.33
2019-05-17T00:30:37.568Z,99608.08
2019-05-17T00:31:41.775Z,99603.03
2019-05-17T00:32:47.607Z,99610.05
2019-05-17T00:33:51.997Z,99606.72
2019-05-17T00:34:56.843Z,99605.84
2019-05-17T00:36:01.037Z,99601.89
2019-05-17T00:37:07.000Z,99604.44
2019-05-17T00:38:12.394Z,99607.45
2019-05-17T00:39:17.117Z,99600.41
2019-05-17T00:40:21.293Z,99604.63
2019-05-17T00:41:26.977Z,99601.51
2019-05-17T00:42:31.204Z,99595.58
2019-05-17T00:43:36.912Z,99595.92
2019-05-17T00:44:41.148Z,99590.86
2019-05-17T00:45:46.807Z,99593.42
2019-05-17T00:46:51.453Z,99591.70
2019-05-17T00:47:57.294Z,99588.64
2019-05-17T00:49:01.603Z,99593.22
2019-05-17T00:50:07.567Z,99589.53
2019-05-17T00:51:11.837Z,99592.85
2019-05-17T00:52:16.877Z,99588.95
2019-05-17T00:53:21.189Z,99582.46
2019-05-17T00:54:26.903Z,99582.18
2019-05-17T00:55:31.173Z,99578.30
2019-05-17T00:56:37.186Z,99577.42
2019-05-17T00:57:41.606Z,99575.70
2019-05-17T00:58:47.747Z,99581.89
2019-05-17T00:59:51.986Z,99576.02
2019-05-17T01:00:58.480Z,99571.30
2019-05-17T01:02:02.600Z,99576.64
2019-05-17T01:03:08.596Z,99575.24
2019-05-17T01:04:12.765Z,99579.45
2019-05-17T01:05:17.781Z,99577.27
2019-05-17T01:06:22.025Z,99571.66
2019-05-17T01:07:27.052Z,99571.86
2019-05-17T01:08:31.247Z,99567.08
2019-05-17T01:09:36.637Z,99565.38
2019-05-17T01:10:41.020Z,99567.58
2019-05-17T01:11:47.432Z,99564.28
2019-05-17T01:12:51.952Z,99566.77
2019-05-17T01:13:58.653Z,99554.72
2019-05-17T01:15:03.456Z,99554.13
2019-05-17T01:16:08.291Z,99558.85
2019-05-17T01:17:12.492Z,99556.05
2019-05-17T01:18:17.319Z,99555.16
2019-05-17T01:19:21.729Z,99551.47
2019-05-17T01:20:27.714Z,99553.70
2019-05-17T01:21:32.021Z,99551.72
2019-05-17T01:22:36.937Z,99551.20
2019-05-17T01:23:41.135Z,99548.09
2019-05-17T01:24:46.331Z,99548.34
2019-05-17T01:25:51.651Z,99545.34
2019-05-17T01:26:57.428Z,99548.14
2019-05-17T01:28:02.627Z,99538.41
2019-05-17T01:29:07.588Z,99546.80
2019-05-17T01:30:11.892Z,99548.41
2019-05-17T01:31:17.268Z,99539.98
2019-05-17T01:32:21.606Z,99539.73
2019-05-17T01:33:28.049Z,99543.05
2019-05-17T01:34:32.225Z,99543.87
2019-05-17T01:35:37.608Z,99536.92
2019-05-17T01:36:42.056Z,99542.91
2019-05-17T01:37:47.514Z,99543.99
2019-05-17T01:38:51.906Z,99536.41
2019-05-17T01:39:57.359Z,99538.13
2019-05-17T01:41:01.587Z,99536.72
2019-05-17T01:42:07.746Z,99532.20
2019-05-17T01:43:12.015Z,99536.41
2019-05-17T01:44:16.910Z,99529.33
2019-05-17T01:45:21.262Z,99538.33
2019-05-17T01:46:26.495Z,99532.45
2019-05-17T01:47:30.794Z,99531.94
2019-05-17T01:48:36.601Z,99530.48
2019-05-17T01:49:40.872Z,99535.52
2019-05-17T01:50:46.461Z,99532.71
2019-05-17T01:51:50.765Z,99531.56
2019-05-17T01:52:56.733Z,99526.53
2019-05-17T01:54:00.999Z,99523.41
2019-05-17T01:55:08.889Z,99530.16
2019-05-17T01:56:13.217Z,99525.95
2019-05-17T01:57:18.017Z,99524.03
2019-05-17T01:58:22.519Z,99525.75
2019-05-17T01:59:27.251Z,99523.20
2019-05-17T02:00:31.466Z,99524.34
2019-05-17T02:01:37.081Z,99523.78
2019-05-17T02:02:43.146Z,99518.16
2019-05-17T02:03:47.953Z,99522.12
2019-05-17T02:04:52.827Z,99517.34
2019-05-17T02:05:57.623Z,99515.67
2019-05-17T02:07:01.902Z,99513.13
2019-05-17T02:08:07.100Z,99513.70
2019-05-17T02:09:11.361Z,99515.44
2019-05-17T02:10:16.937Z,99515.19
2019-05-17T02:11:21.558Z,99510.20
2019-05-17T02:12:26.841Z,99506.52
2019-05-17T02:13:31.079Z,99512.38
2019-05-17T02:14:37.637Z,99510.98
2019-05-17T02:15:41.910Z,99508.69
2019-05-17T02:16:46.875Z,99509.26
2019-05-17T02:17:51.269Z,99505.88
2019-05-17T02:18:57.328Z,99508.95
2019-05-17T02:20:01.661Z,99507.83
2019-05-17T02:21:06.754Z,99506.69
2019-05-17T02:22:12.103Z,99505.31
2019-05-17T02:23:17.405Z,99503.39
2019-05-17T02:24:21.765Z,99496.95
2019-05-17T02:25:27.304Z,99496.43
2019-05-17T02:26:31.485Z,99479.74
2019-05-17T02:27:41.183Z,99503.02
2019-05-17T02:28:42.233Z,99492.94
2019-05-17T02:29:47.137Z,99496.00
2019-05-17T02:30:53.051Z,99499.66
2019-05-17T02:31:57.801Z,99501.33
2019-05-17T02:33:04.072Z,99492.34
2019-05-17T02:34:09.618Z,99497.69
2019-05-17T02:35:15.019Z,99494.00
2019-05-17T02:36:22.616Z,99496.80
2019-05-17T02:37:25.698Z,99494.88
2019-05-17T02:38:33.358Z,99488.70
2019-05-17T02:39:52.559Z,99488.13
2019-05-17T02:40:43.282Z,99489.80
2019-05-17T02:41:47.534Z,99492.86
2019-05-17T02:42:53.911Z,99494.26
2019-05-17T02:43:58.107Z,99490.87
2019-05-17T02:45:03.560Z,99492.59
2019-05-17T02:46:07.879Z,99494.00
2019-05-17T02:47:13.321Z,99489.22
2019-05-17T02:48:17.704Z,99487.50
2019-05-17T02:49:23.520Z,99494.77
2019-05-17T02:50:27.990Z,99490.45
2019-05-17T02:51:32.732Z,99491.02
2019-05-17T02:52:36.953Z,99484.00
2019-05-17T02:53:43.008Z,99490.45
2019-05-17T02:54:48.786Z,99490.39
2019-05-17T02:55:54.107Z,99486.75
2019-05-17T02:56:58.300Z,99493.20
2019-05-17T02:58:03.699Z,99486.23
2019-05-17T02:59:08.024Z,99490.70
2019-05-17T03:00:13.634Z,99495.45
2019-05-17T03:01:18.299Z,99487.88
2019-05-17T03:02:27.700Z,99482.52
2019-05-17T03:03:28.915Z,99490.63
2019-05-17T03:04:33.810Z,99483.03
2019-05-17T03:05:37.984Z,99482.46
2019-05-17T03:06:43.829Z,99484.44
2019-05-17T03:07:52.611Z,99485.53
2019-05-17T03:08:56.110Z,99491.71
2019-05-17T03:10:16.443Z,99482.20
2019-05-17T03:11:06.700Z,99478.83
2019-05-17T03:12:12.874Z,99477.42
2019-05-17T03:13:18.147Z,99479.41
2019-05-17T03:14:23.084Z,99474.36
2019-05-17T03:15:27.904Z,99481.63
2019-05-17T03:16:33.820Z,99479.09
2019-05-17T03:17:38.809Z,99475.20
2019-05-17T03:18:43.899Z,99476.59
2019-05-17T03:19:52.931Z,99479.09
2019-05-17T03:20:55.986Z,99469.58
2019-05-17T03:22:04.438Z,99475.77
2019-05-17T03:23:06.620Z,99481.38
2019-05-17T03:24:13.770Z,99475.77
2019-05-17T03:25:17.261Z,99473.22
2019-05-17T03:26:23.174Z,99473.56
2019-05-17T03:27:27.415Z,99471.05
2019-05-17T03:28:34.310Z,99472.70
2019-05-17T03:29:38.703Z,99473.84
2019-05-17T03:30:46.604Z,99471.61
2019-05-17T03:31:58.064Z,99469.35
2019-05-17T03:32:57.027Z,99470.23
2019-05-17T03:34:06.873Z,99473.78
2019-05-17T03:35:08.075Z,99476.15
2019-05-17T03:36:16.741Z,99471.06
2019-05-17T03:37:18.931Z,99470.80
2019-05-17T03:38:24.191Z,99473.61
2019-05-17T03:39:29.068Z,99468.77
2019-05-17T03:41:01.634Z,99473.27
2019-05-17T03:41:42.630Z,99469.08
2019-05-17T03:42:45.990Z,99473.27
2019-05-17T03:43:53.248Z,99470.15
2019-05-17T03:44:56.757Z,99469.91
2019-05-17T03:46:02.652Z,99463.33
2019-05-17T03:47:07.330Z,99463.02
2019-05-17T03:48:12.951Z,99465.05
2019-05-17T03:49:17.348Z,99465.25
2019-05-17T03:50:22.810Z,99464.05
2019-05-17T03:51:27.103Z,99464.30
2019-05-17T03:52:33.279Z,99458.13
2019-05-17T03:53:37.587Z,99462.33
2019-05-17T03:54:42.998Z,99459.84
2019-05-17T03:55:47.388Z,99464.30
2019-05-17T03:56:53.291Z,99466.26
2019-05-17T03:57:57.734Z,99462.05
2019-05-17T03:59:03.700Z,99463.14
2019-05-17T04:00:08.685Z,99458.10
2019-05-17T04:01:14.218Z,99461.50
2019-05-17T04:02:18.704Z,99459.33
2019-05-17T04:03:23.609Z,99461.61
2019-05-17T04:04:27.795Z,99466.01
2019-05-17T04:05:33.670Z,99460.91
2019-05-17T04:06:37.882Z,99458.34
2019-05-17T04:07:43.461Z,99458.29
2019-05-17T04:08:48.153Z,99458.61
2019-05-17T04:09:53.447Z,99457.77
2019-05-17T04:11:17.586Z,99463.64
2019-05-17T04:12:08.229Z,99466.45
2019-05-17T04:13:12.983Z,99463.91
2019-05-17T04:14:17.961Z,99462.83
2019-05-17T04:15:23.990Z,99463.95
2019-05-17T04:16:28.638Z,99468.16
2019-05-17T04:17:33.782Z,99462.83
2019-05-17T04:18:38.591Z,99470.21
2019-05-17T04:19:42.821Z,99466.89
2019-05-17T04:20:47.617Z,99470.47
2019-05-17T04:21:53.629Z,99476.34
2019-05-17T04:23:03.466Z,99472.39
2019-05-17T04:24:06.381Z,99473.53
2019-05-17T04:25:13.478Z,99479.66
2019-05-17T04:26:17.062Z,99471.53
2019-05-17T04:27:22.933Z,99470.97
2019-05-17T04:28:27.393Z,99479.32
2019-05-17T04:29:33.342Z,99475.12
2019-05-17T04:30:37.791Z,99479.32
2019-05-17T04:31:43.682Z,99480.41
2019-05-17T04:32:48.221Z,99484.72
2019-05-17T04:33:53.758Z,99487.73
2019-05-17T04:34:58.405Z,99483.22
2019-05-17T04:36:03.241Z,99487.42
2019-05-17T04:37:07.582Z,99485.45
2019-05-17T04:38:13.008Z,99486.80
2019-05-17T04:39:18.381Z,99483.22
2019-05-17T04:40:23.386Z,99488.77
2019-05-17T04:41:44.668Z,99492.09
2019-05-17T04:42:34.152Z,99491.26
2019-05-17T04:43:38.295Z,99487.88
2019-05-17T04:44:43.363Z,99484.77
2019-05-17T04:45:47.655Z,99487.29
2019-05-17T04:46:53.567Z,99488.41
2019-05-17T04:47:58.030Z,99479.97
2019-05-17T04:49:03.225Z,99483.86
2019-05-17T04:50:07.582Z,99488.58
2019-05-17T04:51:13.127Z,99482.66
2019-05-17T04:52:17.715Z,99485.83
2019-05-17T04:53:23.321Z,99481.63
2019-05-17T04:54:27.771Z,99488.84
2019-05-17T04:55:34.301Z,99478.45
2019-05-17T04:56:42.444Z,99476.99
2019-05-17T04:57:45.948Z,99479.23
2019-05-17T04:58:53.505Z,99475.84
2019-05-17T04:59:56.568Z,99477.25
2019-05-17T05:01:03.815Z,99476.11
2019-05-17T05:02:07.360Z,99480.31
2019-05-17T05:03:12.791Z,99480.57
2019-05-17T05:04:17.702Z,99475.96
2019-05-17T05:05:22.817Z,99473.16
2019-05-17T05:06:27.947Z,99479.28
2019-05-17T05:07:33.525Z,99475.96
2019-05-17T05:08:38.498Z,99473.09
2019-05-17T05:09:43.164Z,99471.49
2019-05-17T05:10:47.989Z,99472.78
2019-05-17T05:12:00.763Z,99475.84
2019-05-17T05:12:59.061Z,99474.50
2019-05-17T05:14:03.287Z,99482.28
2019-05-17T05:15:08.078Z,99476.48
2019-05-17T05:16:13.461Z,99474.45
2019-05-17T05:17:18.538Z,99478.66
2019-05-17T05:18:22.787Z,99475.83
2019-05-17T05:19:27.533Z,99473.67
2019-05-17T05:20:32.593Z,99477.36
2019-05-17T05:21:37.490Z,99478.51
2019-05-17T05:22:42.794Z,99469.20
2019-05-17T05:23:47.806Z,99469.72
2019-05-17T05:24:52.489Z,99475.91
2019-05-17T05:25:57.286Z,99466.77
2019-05-17T05:27:02.637Z,99467.92
2019-05-17T05:28:07.469Z,99476.59
2019-05-17T05:29:13.017Z,99469.58
2019-05-17T05:30:17.799Z,99475.39
2019-05-17T05:31:22.775Z,99468.06
2019-05-17T05:32:27.641Z,99469.47
2019-05-17T05:33:33.028Z,99467.86
2019-05-17T05:34:38.145Z,99470.74
2019-05-17T05:35:42.753Z,99466.02
2019-05-17T05:36:48.625Z,99465.39
2019-05-17T05:37:53.765Z,99461.42
2019-05-17T05:38:58.503Z,99463.28
2019-05-17T05:40:03.111Z,99464.94
2019-05-17T05:41:07.903Z,99466.09
2019-05-17T05:42:13.963Z,99463.02
2019-05-17T05:43:18.561Z,99465.63
2019-05-17T05:44:23.449Z,99465.31
2019-05-17T05:45:28.181Z,99463.70
2019-05-17T05:46:32.354Z,99465.45
2019-05-17T05:47:37.110Z,99466.59
2019-05-17T05:48:41.733Z,99467.94
2019-05-17T05:49:46.497Z,99472.41
2019-05-17T05:50:52.068Z,99465.19
2019-05-17T05:51:56.959Z,99466.34
2019-05-17T05:53:02.001Z,99468.00
2019-05-17T05:54:06.848Z,99467.94
2019-05-17T05:55:12.186Z,99463.08
2019-05-17T05:56:17.289Z,99465.83
2019-05-17T05:57:21.981Z,99471.38
2019-05-17T05:58:26.865Z,99463.54
2019-05-17T05:59:31.716Z,99466.03
2019-05-17T06:00:37.642Z,99464.86
2019-05-17T06:01:42.231Z,99463.91
2019-05-17T06:02:47.085Z,99460.73
2019-05-17T06:03:52.047Z,99466.01
2019-05-17T06:04:57.663Z,99473.79
2019-05-17T06:06:02.106Z,99464.73
2019-05-17T06:07:06.957Z,99470.55
2019-05-17T06:08:12.312Z,99464.94
2019-05-17T06:09:17.373Z,99467.72
2019-05-17T06:10:21.908Z,99468.29
2019-05-17T06:11:26.674Z,99466.09
2019-05-17T06:12:32.214Z,99474.19
2019-05-17T06:13:37.061Z,99463.80
2019-05-17T06:14:41.746Z,99465.48
2019-05-17T06:15:46.740Z,99469.95
2019-05-17T06:16:52.015Z,99465.68
2019-05-17T06:17:58.022Z,99460.58
2019-05-17T06:19:03.397Z,99467.28
2019-05-17T06:20:08.308Z,99464.22
2019-05-17T06:21:12.671Z,99467.43
2019-05-17T06:22:17.399Z,99467.34
2019-05-17T06:23:23.512Z,99461.09
2019-05-17T06:24:28.041Z,99463.27
2019-05-17T06:25:34.051Z,99467.64
2019-05-17T06:26:39.159Z,99467.58
2019-05-17T06:27:43.406Z,99466.49
2019-05-17T06:28:48.134Z,99468.67
2019-05-17T06:29:52.306Z,99463.05
2019-05-17T06:30:58.515Z,99465.25
2019-05-17T06:32:02.819Z,99466.87
2019-05-17T06:33:07.621Z,99470.27
2019-05-17T06:34:12.042Z,99464.08
2019-05-17T06:35:16.773Z,99469.69
2019-05-17T06:36:21.753Z,99460.31
2019-05-17T06:37:26.640Z,99469.82
2019-05-17T06:38:32.822Z,99468.93
2019-05-17T06:39:37.794Z,99465.35
2019-05-17T06:40:42.323Z,99460.25
2019-05-17T06:41:47.175Z,99464.33
2019-05-17T06:42:52.545Z,99470.01
2019-05-17T06:43:57.319Z,99464.90
2019-05-17T06:45:02.187Z,99468.47
2019-05-17T06:46:07.186Z,99465.09
2019-05-17T06:47:12.185Z,99466.49
2019-05-17T06:48:16.912Z,99463.34
2019-05-17T06:49:22.428Z,99463.50
2019-05-17T06:50:27.190Z,99463.63
2019-05-17T06:51:31.671Z,99465.26
2019-05-17T06:52:36.470Z,99463.79
2019-05-17T06:53:40.642Z,99463.79
2019-05-17T06:54:45.385Z,99463.16
2019-05-17T06:55:49.575Z,99460.47
2019-05-17T06:56:54.376Z,99464.81
2019-05-17T06:57:58.593Z,99463.34
2019-05-17T06:59:03.475Z,99457.56
2019-05-17T07:00:18.177Z,99459.09
2019-05-17T07:01:15.772Z,99463.20
2019-05-17T07:02:20.180Z,99454.06
2019-05-17T07:03:25.014Z,99459.04
2019-05-17T07:04:29.953Z,99451.15
2019-05-17T07:05:36.875Z,99454.39
2019-05-17T07:06:41.450Z,99459.37
2019-05-17T07:07:46.188Z,99453.11
2019-05-17T07:08:50.626Z,99451.59
2019-05-17T07:10:00.667Z,99454.34
2019-05-17T07:11:06.070Z,99452.22
2019-05-17T07:12:10.952Z,99449.94
2019-05-17T07:13:15.348Z,99447.89
2019-05-17T07:14:20.391Z,99445.77
2019-05-17T07:15:24.560Z,99443.98
2019-05-17T07:16:30.073Z,99441.61
2019-05-17T07:17:34.489Z,99447.09
2019-05-17T07:18:39.970Z,99447.83
2019-05-17T07:19:44.480Z,99441.55
2019-05-17T07:20:50.206Z,99442.56
2019-05-17T07:21:54.592Z,99436.49
2019-05-17T07:23:00.469Z,99436.34
2019-05-17T07:24:05.860Z,99435.64
2019-05-17T07:25:25.370Z,99436.06
2019-05-17T07:26:30.213Z,99437.06
2019-05-17T07:27:41.549Z,99443.39
2019-05-17T07:28:40.935Z,99439.02
2019-05-17T07:29:45.663Z,99440.05
2019-05-17T07:30:50.474Z,99439.97
2019-05-17T07:31:55.247Z,99435.34
2019-05-17T07:33:00.321Z,99442.79
2019-05-17T07:34:05.400Z,99439.92
2019-05-17T07:35:10.805Z,99441.00
2019-05-17T07:36:19.598Z,99436.37
2019-05-17T07:37:23.084Z,99427.22
2019-05-17T07:38:30.040Z,99428.45
2019-05-17T07:39:33.868Z,99422.16
2019-05-17T07:40:39.860Z,99419.21
2019-05-17T07:41:44.236Z,99414.57
2019-05-17T07:42:50.137Z,99420.03
2019-05-17T07:43:54.372Z,99418.23
2019-05-17T07:45:00.584Z,99416.20
2019-05-17T07:46:05.988Z,99417.61
2019-05-17T07:47:11.022Z,99419.09
2019-05-17T07:48:15.201Z,99412.15
2019-05-17T07:49:20.111Z,99415.53
2019-05-17T07:50:24.354Z,99418.54
2019-05-17T07:51:30.096Z,99417.62
2019-05-17T07:52:34.382Z,99408.83
2019-05-17T07:53:40.037Z,99411.81
2019-05-17T07:54:44.706Z,99409.18
2019-05-17T07:55:50.586Z,99405.69
2019-05-17T07:56:54.866Z,99398.70
2019-05-17T07:58:00.211Z,99404.01
2019-05-17T07:59:06.484Z,99397.97
2019-05-17T08:00:11.336Z,99404.34
2019-05-17T08:01:15.765Z,99402.27
2019-05-17T08:02:20.493Z,99398.52
2019-05-17T08:03:25.095Z,99395.12
2019-05-17T08:04:30.140Z,99392.00
2019-05-17T08:05:34.383Z,99393.07
2019-05-17T08:06:40.329Z,99397.36
2019-05-17T08:07:44.645Z,99390.89
2019-05-17T08:08:50.298Z,99388.32
2019-05-17T08:09:54.589Z,99387.19
2019-05-17T08:11:00.312Z,99393.31
2019-05-17T08:12:04.873Z,99388.41
2019-05-17T08:13:24.746Z,99389.97
2019-05-17T08:14:26.801Z,99392.70
2019-05-17T08:15:21.983Z,99386.41
2019-05-17T08:16:26.710Z,99378.92
2019-05-17T08:17:31.481Z,99381.80
2019-05-17T08:18:35.693Z,99383.97
2019-05-17T08:19:40.526Z,99382.12
2019-05-17T08:20:44.780Z,99376.31
2019-05-17T08:21:50.227Z,99371.58
2019-05-17T08:22:54.557Z,99375.47
2019-05-17T08:24:00.126Z,99370.55
2019-05-17T08:25:04.922Z,99374.38
2019-05-17T08:26:10.710Z,99372.77
2019-05-17T08:27:15.124Z,99368.92
2019-05-17T08:28:21.613Z,99368.64
2019-05-17T08:29:29.604Z,99369.13
2019-05-17T08:30:33.646Z,99371.78
2019-05-17T08:31:40.185Z,99366.76
2019-05-17T08:32:44.464Z,99373.02
2019-05-17T08:33:49.799Z,99365.20
2019-05-17T08:34:54.731Z,99369.81
2019-05-17T08:35:59.894Z,99371.53
2019-05-17T08:37:05.262Z,99361.67
2019-05-17T08:38:10.326Z,99360.00
2019-05-17T08:39:15.267Z,99372.25
2019-05-17T08:40:20.140Z,99360.51
2019-05-17T08:41:24.963Z,99353.27
2019-05-17T08:42:29.955Z,99358.22
2019-05-17T08:43:45.113Z,99360.03
2019-05-17T08:44:41.863Z,99357.95
2019-05-17T08:45:46.627Z,99357.84
2019-05-17T08:46:51.541Z,99357.16
2019-05-17T08:47:56.279Z,99354.81
2019-05-17T08:49:00.531Z,99349.88
2019-05-17T08:50:11.236Z,99354.52
2019-05-17T08:51:15.473Z,99356.05
2019-05-17T08:52:20.279Z,99354.69
2019-05-17T08:53:24.453Z,99348.93
2019-05-17T08:54:31.467Z,99347.41
2019-05-17T08:55:35.641Z,99349.77
2019-05-17T08:56:40.547Z,99347.34
2019-05-17T08:57:44.680Z,99347.58
2019-05-17T08:58:49.871Z,99339.20
2019-05-17T08:59:54.158Z,99345.09
2019-05-17T09:01:00.252Z,99338.51
2019-05-17T09:02:04.685Z,99339.09
2019-05-17T09:03:10.645Z,99340.51
2019-05-17T09:04:15.097Z,99342.87
2019-05-17T09:05:21.111Z,99336.52
2019-05-17T09:06:26.657Z,99334.98
2019-05-17T09:07:31.393Z,99335.38
2019-05-17T09:08:35.691Z,99334.44
2019-05-17T09:09:40.432Z,99338.56
2019-05-17T09:10:44.609Z,99329.88
2019-05-17T09:11:50.141Z,99330.13
2019-05-17T09:12:54.311Z,99332.98
2019-05-17T09:14:01.957Z,99329.92
2019-05-17T09:15:06.074Z,99327.63
2019-05-17T09:16:10.992Z,99326.21
2019-05-17T09:17:15.193Z,99324.47
2019-05-17T09:18:20.608Z,99315.85
2019-05-17T09:19:26.120Z,99314.69
2019-05-17T09:20:30.895Z,99317.78
2019-05-17T09:21:35.066Z,99314.94
2019-05-17T09:22:40.050Z,99318.94
2019-05-17T09:23:44.223Z,99313.17
2019-05-17T09:24:49.992Z,99306.44
2019-05-17T09:25:54.319Z,99314.95
2019-05-17T09:26:59.850Z,99301.48
2019-05-17T09:28:04.782Z,99310.42
2019-05-17T09:29:10.772Z,99308.69
2019-05-17T09:30:15.502Z,99302.80
2019-05-17T09:31:20.573Z,99307.84
2019-05-17T09:32:24.792Z,99301.13
2019-05-17T09:33:30.258Z,99312.34
2019-05-17T09:34:34.499Z,99301.92
2019-05-17T09:35:40.799Z,99300.52
2019-05-17T09:36:45.279Z,99298.23
2019-05-17T09:37:50.045Z,99302.63
2019-05-17T09:38:54.255Z,99296.33
2019-05-17T09:39:59.816Z,99291.72
2019-05-17T09:41:04.221Z,99298.30
2019-05-17T09:42:10.337Z,99294.55
2019-05-17T09:43:17.377Z,99295.73
2019-05-17T09:44:22.161Z,99290.98
2019-05-17T09:45:26.371Z,99289.80
2019-05-17T09:46:31.102Z,99285.50
2019-05-17T09:47:35.463Z,99284.58
2019-05-17T09:48:40.265Z,99284.30
2019-05-17T09:49:44.504Z,99283.80
2019-05-17T09:50:50.480Z,99286.17
2019-05-17T09:51:54.889Z,99287.31
2019-05-17T09:53:00.075Z,99285.79
2019-05-17T09:54:04.866Z,99282.82
2019-05-17T09:55:10.035Z,99278.69
2019-05-17T09:56:14.312Z,99281.84
2019-05-17T09:57:20.501Z,99276.48
2019-05-17T09:58:24.825Z,99278.98
2019-05-17T09:59:29.881Z,99288.18
2019-05-17T10:00:34.102Z,99265.62
2019-05-17T10:01:39.493Z,99277.83
2019-05-17T10:02:43.877Z,99275.94
2019-05-17T10:03:50.643Z,99281.47
2019-05-17T10:04:54.528Z,99280.28
2019-05-17T10:05:59.996Z,99279.17
2019-05-17T10:07:04.667Z,99279.30
2019-05-17T10:08:10.886Z,99280.11
2019-05-17T10:09:15.244Z,99273.84
2019-05-17T10:10:20.373Z,99264.95
2019-05-17T10:11:24.668Z,99264.95
2019-05-17T10:12:29.471Z,99270.78
2019-05-17T10:13:33.645Z,99267.57
2019-05-17T10:14:38.379Z,99265.55
2019-05-17T10:15:42.649Z,99267.94
2019-05-17T10:16:47.397Z,99264.36
2019-05-17T10:17:51.569Z,99266.97
2019-05-17T10:18:56.400Z,99260.13
2019-05-17T10:20:00.680Z,99259.42
2019-05-17T10:21:05.638Z,99262.06
2019-05-17T10:22:10.491Z,99260.05
2019-05-17T10:23:15.361Z,99255.65
2019-05-17T10:24:20.051Z,99264.88
2019-05-17T10:25:25.989Z,99252.55
2019-05-17T10:26:30.451Z,99254.06
2019-05-17T10:27:35.364Z,99253.31
2019-05-17T10:28:39.993Z,99260.98
2019-05-17T10:29:44.849Z,99256.13
2019-05-17T10:30:52.316Z,99257.48
2019-05-17T10:31:55.450Z,99253.30
2019-05-17T10:33:00.127Z,99251.03
2019-05-17T10:34:05.105Z,99250.06
2019-05-17T10:35:09.278Z,99254.66
2019-05-17T10:36:14.142Z,99246.33
2019-05-17T10:37:20.317Z,99253.83
2019-05-17T10:38:24.991Z,99258.69
2019-05-17T10:39:29.761Z,99249.68
2019-05-17T10:40:34.636Z,99254.84
2019-05-17T10:41:40.607Z,99254.09
2019-05-17T10:42:45.278Z,99253.34
2019-05-17T10:43:50.087Z,99250.50
2019-05-17T10:44:55.036Z,99249.33
2019-05-17T10:45:59.807Z,99249.83
2019-05-17T10:47:05.244Z,99248.63
2019-05-17T10:48:10.558Z,99247.03
2019-05-17T10:49:16.224Z,99252.19
2019-05-17T10:50:20.741Z,99250.28
2019-05-17T10:51:25.497Z,99239.90
2019-05-17T10:52:30.097Z,99242.06
2019-05-17T10:53:34.911Z,99250.73
2019-05-17T10:54:40.219Z,99249.45
2019-05-17T10:55:46.053Z,99252.08
2019-05-17T10:56:50.372Z,99255.80
2019-05-17T10:57:55.024Z,99260.23
2019-05-17T10:59:00.108Z,99255.76
2019-05-17T11:00:06.759Z,99254.85
2019-05-17T11:01:11.141Z,99254.66
2019-05-17T11:02:15.878Z,99245.69
2019-05-17T11:03:20.453Z,99245.91
2019-05-17T11:04:25.280Z,99241.66
2019-05-17T11:05:30.782Z,99240.92
2019-05-17T11:06:35.639Z,99243.75
2019-05-17T11:07:39.824Z,99241.37
2019-05-17T11:08:44.523Z,99243.02
2019-05-17T11:09:50.862Z,99249.03
2019-05-17T11:10:56.199Z,99247.02
2019-05-17T11:12:00.364Z,99247.23
2019-05-17T11:13:05.154Z,99242.02
2019-05-17T11:14:09.322Z,99240.52
2019-05-17T11:15:14.409Z,99247.05
2019-05-17T11:16:18.639Z,99240.32
2019-05-17T11:17:23.360Z,99243.02
2019-05-17T11:18:27.525Z,99242.08
2019-05-17T11:19:32.466Z,99238.50
2019-05-17T11:20:36.664Z,99233.58
2019-05-17T11:21:41.427Z,99237.20
2019-05-17T11:22:45.602Z,99235.03
2019-05-17T11:23:50.319Z,99235.56
2019-05-17T11:24:54.484Z,99233.35
2019-05-17T11:25:59.254Z,99234.17
2019-05-17T11:27:03.414Z,99225.61
2019-05-17T11:28:09.102Z,99232.63
2019-05-17T11:29:13.259Z,99233.17
2019-05-17T11:30:18.082Z,99229.36
2019-05-17T11:31:22.392Z,99233.57
2019-05-17T11:32:27.121Z,99228.34
2019-05-17T11:33:31.290Z,99230.65
2019-05-17T11:34:36.040Z,99227.50
2019-05-17T11:35:40.207Z,99230.88
2019-05-17T11:36:44.961Z,99226.24
2019-05-17T11:37:49.136Z,99227.88
2019-05-17T11:38:53.856Z,99235.25
2019-05-17T11:39:58.069Z,99217.21
2019-05-17T11:41:19.920Z,99229.63
2019-05-17T11:42:08.651Z,99223.12
2019-05-17T11:43:13.376Z,99229.09
2019-05-17T11:44:17.540Z,99233.34
2019-05-17T11:45:27.831Z,99226.47
2019-05-17T11:46:35.727Z,99227.00
2019-05-17T11:47:34.564Z,99227.70
2019-05-17T11:48:38.726Z,99229.63
2019-05-17T11:49:43.447Z,99228.15
2019-05-17T11:50:47.730Z,99224.23
2019-05-17T11:51:52.525Z,99223.41
2019-05-17T11:52:56.690Z,99224.01
2019-05-17T11:54:01.407Z,99231.72
2019-05-17T11:55:06.251Z,99219.68
2019-05-17T11:56:11.098Z,99222.14
2019-05-17T11:57:15.264Z,99223.28
2019-05-17T11:58:19.994Z,99220.59
2019-05-17T11:59:24.155Z,99215.47
2019-05-17T12:00:28.875Z,99211.80
2019-05-17T12:01:33.109Z,99211.80
2019-05-17T12:02:37.832Z,99216.17
2019-05-17T12:03:41.997Z,99208.78
2019-05-17T12:04:46.806Z,99215.35
2019-05-17T12:05:50.935Z,99209.95
2019-05-17T12:06:55.741Z,99210.11
2019-05-17T12:07:59.906Z,99204.92
2019-05-17T12:09:06.192Z,99196.61
2019-05-17T12:10:10.829Z,99207.38
2019-05-17T12:11:15.539Z,99209.55
2019-05-17T12:12:19.731Z,99210.22
2019-05-17T12:13:24.447Z,99210.22
2019-05-17T12:14:28.683Z,99207.21
2019-05-17T12:15:44.430Z,99203.70
2019-05-17T12:16:39.292Z,99211.42
2019-05-17T12:17:44.026Z,99213.06
2019-05-17T12:18:48.184Z,99213.72
2019-05-17T12:19:52.929Z,99212.30
2019-05-17T12:20:57.091Z,99213.42
2019-05-17T12:22:01.988Z,99209.00
2019-05-17T12:23:06.116Z,99208.02
2019-05-17T12:24:10.839Z,99201.50
2019-05-17T12:25:15.004Z,99207.95
2019-05-17T12:26:19.725Z,99205.17
2019-05-17T12:27:23.916Z,99203.64
2019-05-17T12:28:28.708Z,99201.70
2019-05-17T12:29:32.902Z,99202.39
2019-05-17T12:30:38.600Z,99202.88
2019-05-17T12:31:42.805Z,99206.27
2019-05-17T12:32:47.607Z,99204.03
2019-05-17T12:33:51.789Z,99200.80
2019-05-17T12:34:56.502Z,99203.05
2019-05-17T12:36:00.668Z,99198.01
2019-05-17T12:37:05.833Z,99191.88
2019-05-17T12:38:10.097Z,99195.98
2019-05-17T12:39:14.788Z,99204.99
2019-05-17T12:40:18.968Z,99205.42
2019-05-17T12:41:23.703Z,99202.80
2019-05-17T12:42:27.893Z,99194.09
2019-05-17T12:43:32.922Z,99197.21